createdAt,value
2022-11-12T00:02:36.733Z,10.9
2022-11-12T00:07:36.759Z,11.2
2022-11-12T00:12:36.807Z,8.6
2022-11-12T00:17:36.861Z,14.6
2022-11-12T00:27:36.946Z,13.1
2022-11-12T00:32:36.918Z,10.2
2022-11-12T00:37:36.929Z,16.9
2022-11-12T00:42:37.012Z,16.9
2022-11-12T00:47:37.049Z,20.8
2022-11-12T00:52:37.103Z,19.0
2022-11-12T00:57:37.182Z,23.2
2022-11-12T01:02:43.292Z,23.2
2022-11-12T01:07:37.281Z,18.4
2022-11-12T01:12:37.357Z,20.3
2022-11-12T01:17:37.417Z,20.3
2022-11-12T01:22:37.542Z,20.5
2022-11-12T01:27:37.546Z,15.2
2022-11-12T01:32:37.607Z,20.9
2022-11-12T01:37:37.686Z,12.9
2022-11-12T01:42:37.747Z,10.2
2022-11-12T01:47:37.831Z,9.0
2022-11-12T01:52:37.781Z,15.0
2022-11-12T01:57:39.207Z,15.0
2022-11-12T02:07:37.914Z,14.4
2022-11-12T02:12:38.072Z,9.3
2022-11-12T02:17:37.985Z,11.1
2022-11-12T02:22:37.942Z,11.1
2022-11-12T02:27:38.015Z,11.8
2022-11-12T02:32:40.000Z,11.5
2022-11-12T02:37:40.009Z,6.6
2022-11-12T02:42:37.968Z,8.4
2022-11-12T02:47:38.027Z,7.0
2022-11-12T02:52:38.045Z,9.3
2022-11-12T02:57:38.058Z,9.3
2022-11-12T03:02:38.051Z,7.5
2022-11-12T03:07:42.081Z,12.7
2022-11-12T03:12:38.069Z,5.1
2022-11-12T03:17:38.114Z,7.2
2022-11-12T03:22:38.156Z,12.7
2022-11-12T03:27:38.132Z,12.4
2022-11-12T03:32:38.195Z,10.2
2022-11-12T03:37:40.264Z,7.0
2022-11-12T03:42:38.353Z,10.5
2022-11-12T03:47:38.451Z,6.8
2022-11-12T03:52:38.400Z,11.3
2022-11-12T03:57:40.530Z,8.1
2022-11-12T04:02:38.632Z,13.7
2022-11-12T04:07:40.543Z,14.4
2022-11-12T04:12:38.579Z,7.6
2022-11-12T04:17:38.626Z,9.2
2022-11-12T04:22:42.641Z,10.8
2022-11-12T04:32:38.736Z,13.0
2022-11-12T04:37:38.855Z,12.7
2022-11-12T04:42:38.924Z,12.7
2022-11-12T04:47:39.296Z,9.1
2022-11-12T04:52:39.057Z,6.5
2022-11-12T04:57:39.163Z,6.5
2022-11-12T05:02:39.241Z,8.7
2022-11-12T05:07:39.315Z,8.7
2022-11-12T05:12:39.380Z,10.0
2022-11-12T05:17:39.418Z,7.3
2022-11-12T05:22:43.175Z,9.6
2022-11-12T05:27:39.600Z,9.6
2022-11-12T05:32:39.698Z,10.1
2022-11-12T05:37:39.821Z,9.3
2022-11-12T05:42:39.881Z,8.0
2022-11-12T05:47:39.976Z,8.1
2022-11-12T05:52:40.048Z,8.8
2022-11-12T05:57:40.117Z,7.6
2022-11-12T06:02:40.238Z,8.9
2022-11-12T06:07:40.247Z,11.2
2022-11-12T06:17:40.355Z,10.9
2022-11-12T06:27:40.429Z,12.0
2022-11-12T06:32:40.396Z,10.9
2022-11-12T06:37:40.480Z,10.9
2022-11-12T06:42:40.542Z,8.2
2022-11-12T06:47:40.748Z,8.5
2022-11-12T06:52:40.619Z,10.3
2022-11-12T06:57:42.681Z,9.3
2022-11-12T07:02:40.753Z,11.8
2022-11-12T07:07:40.801Z,7.5
2022-11-12T07:17:40.914Z,7.9
2022-11-12T07:22:42.947Z,8.8
2022-11-12T07:27:41.022Z,10.9
2022-11-12T07:32:45.046Z,8.3
2022-11-12T07:37:41.122Z,10.1
2022-11-12T07:42:41.235Z,9.1
2022-11-12T07:47:41.304Z,9.1
2022-11-12T07:52:41.392Z,13.0
2022-11-12T07:57:41.615Z,10.8
2022-11-12T08:02:41.797Z,10.8
2022-11-12T08:07:42.037Z,6.6
2022-11-12T08:12:42.006Z,9.2
2022-11-12T08:17:42.021Z,13.0
2022-11-12T08:22:47.930Z,11.1
2022-11-12T08:27:42.213Z,11.9
2022-11-12T08:32:43.019Z,10.2
2022-11-12T08:37:42.392Z,7.2
2022-11-12T08:42:42.553Z,7.2
2022-11-12T08:47:42.704Z,16.7
2022-11-12T08:52:42.861Z,7.6
2022-11-12T08:57:42.968Z,7.6
2022-11-12T09:02:43.110Z,9.6
2022-11-12T09:07:49.952Z,14.0
2022-11-12T09:12:43.418Z,14.0
2022-11-12T09:17:45.665Z,8.5
2022-11-12T09:22:43.724Z,8.5
2022-11-12T09:27:48.288Z,9.1
2022-11-12T09:32:44.089Z,9.1
2022-11-12T09:37:44.275Z,13.0
2022-11-12T09:42:44.479Z,13.0
2022-11-12T09:47:44.657Z,12.4
2022-11-12T09:52:48.906Z,7.5
2022-11-12T09:57:45.170Z,6.8
2022-11-12T10:02:45.380Z,10.6
2022-11-12T10:07:45.606Z,6.7
2022-11-12T10:12:45.791Z,20.8
2022-11-12T10:17:46.028Z,18.7
2022-11-12T10:27:46.411Z,9.9
2022-11-12T10:32:46.677Z,8.8
2022-11-12T10:37:46.874Z,10.7
2022-11-12T10:42:47.115Z,8.5
2022-11-12T10:47:47.315Z,8.3
2022-11-12T10:52:47.583Z,8.4
2022-11-12T10:57:47.840Z,8.4
2022-11-12T11:02:47.940Z,8.8
2022-11-12T11:07:48.088Z,5.0
2022-11-12T11:12:48.357Z,9.9
2022-11-12T11:17:48.598Z,9.9
2022-11-12T11:22:48.872Z,7.8
2022-11-12T11:27:49.051Z,7.8
2022-11-12T11:32:49.269Z,10.6
2022-11-12T11:37:52.287Z,10.8
2022-11-12T11:42:49.757Z,10.8
2022-11-12T11:48:01.356Z,8.3
2022-11-12T11:52:50.274Z,10.9
2022-11-12T12:02:50.851Z,11.4
2022-11-12T12:07:51.175Z,11.4
2022-11-12T12:12:51.440Z,8.2
2022-11-12T12:17:51.671Z,6.3
2022-11-12T12:22:51.960Z,12.4
2022-11-12T12:27:52.216Z,8.5
2022-11-12T12:32:52.455Z,8.5
2022-11-12T12:37:52.741Z,13.3
2022-11-12T12:42:52.988Z,8.9
2022-11-12T12:47:53.258Z,8.9
2022-11-12T13:02:53.975Z,9.5
2022-11-12T13:07:54.244Z,9.0
2022-11-12T13:12:54.508Z,9.0
2022-11-12T13:17:54.768Z,6.3
2022-11-12T13:22:55.025Z,6.3
2022-11-12T13:27:55.265Z,8.1
2022-11-12T13:32:55.559Z,6.0
2022-11-12T13:37:55.811Z,13.4
2022-11-12T13:47:56.286Z,9.0
2022-11-12T13:53:00.570Z,6.4
2022-11-12T13:57:56.832Z,6.4
2022-11-12T14:02:57.111Z,7.6
2022-11-12T14:07:59.383Z,8.4
2022-11-12T14:13:01.609Z,6.5
2022-11-12T14:17:57.857Z,6.5
2022-11-12T14:22:58.130Z,6.4
2022-11-12T14:32:58.691Z,11.0
2022-11-12T14:37:59.471Z,6.9
2022-11-12T14:42:59.112Z,6.3
2022-11-12T14:47:59.363Z,6.3
2022-11-12T14:52:59.649Z,6.0
2022-11-12T14:57:59.918Z,6.0
2022-11-12T15:03:00.359Z,7.9
2022-11-12T15:13:00.655Z,9.9
2022-11-12T15:18:00.885Z,9.9
2022-11-12T15:23:01.247Z,12.8
2022-11-12T15:28:01.454Z,10.9
2022-11-12T15:38:01.894Z,14.5
2022-11-12T15:43:02.140Z,14.7
2022-11-12T15:48:02.372Z,13.8
2022-11-12T15:53:02.602Z,13.8
2022-11-12T15:58:02.877Z,11.9
2022-11-12T16:03:03.141Z,11.9
2022-11-12T16:08:03.371Z,10.9
2022-11-12T16:13:03.664Z,10.8
2022-11-12T16:18:05.219Z,11.0
2022-11-12T16:23:06.731Z,9.4
2022-11-12T16:28:06.435Z,9.4
2022-11-12T16:33:04.735Z,6.7
2022-11-12T16:38:04.876Z,8.6
2022-11-12T16:43:05.046Z,8.6
2022-11-12T16:48:05.247Z,14.3
2022-11-12T16:53:08.059Z,13.5
2022-11-12T16:58:05.505Z,16.8
2022-11-12T17:03:05.716Z,16.8
2022-11-12T17:08:05.925Z,8.2
2022-11-12T17:18:06.244Z,12.3
2022-11-12T17:23:06.471Z,12.3
2022-11-12T17:28:06.649Z,14.8
2022-11-12T17:33:06.921Z,14.8
2022-11-12T17:38:07.042Z,14.0
2022-11-12T17:43:09.733Z,9.0
2022-11-12T17:48:07.413Z,9.0
2022-11-12T17:53:07.605Z,19.2
2022-11-12T17:58:07.803Z,9.8
2022-11-12T18:03:07.988Z,11.3
2022-11-12T18:08:08.186Z,11.3
2022-11-12T18:13:08.461Z,16.2
2022-11-12T18:18:08.568Z,16.2
2022-11-12T18:23:08.786Z,12.0
2022-11-12T18:28:08.935Z,12.1
2022-11-12T18:33:09.259Z,11.6
2022-11-12T18:38:09.231Z,10.6
2022-11-12T18:43:09.456Z,9.7
2022-11-12T18:48:09.624Z,13.1
2022-11-12T18:53:09.752Z,13.1
2022-11-12T18:58:09.947Z,13.0
2022-11-12T19:03:10.127Z,11.8
2022-11-12T19:08:10.298Z,8.9
2022-11-12T19:13:10.404Z,15.6
2022-11-12T19:18:10.579Z,15.6
2022-11-12T19:23:10.741Z,16.5
2022-11-12T19:33:11.301Z,13.7
2022-11-12T19:38:11.292Z,13.1
2022-11-12T19:43:12.774Z,17.5
2022-11-12T19:48:11.464Z,18.1
2022-11-12T19:53:11.665Z,18.1
2022-11-12T19:58:11.827Z,15.3
2022-11-12T20:03:11.960Z,16.6
2022-11-12T20:08:12.037Z,14.5
2022-11-12T20:13:12.183Z,14.5
2022-11-12T20:18:12.311Z,13.8
2022-11-12T20:23:12.458Z,14.9
2022-11-12T20:28:12.610Z,20.1
2022-11-12T20:33:14.932Z,14.3
2022-11-12T20:38:12.969Z,17.6
2022-11-12T20:43:13.076Z,12.1
2022-11-12T20:48:13.214Z,22.2
2022-11-12T20:53:15.415Z,16.0
2022-11-12T20:58:13.450Z,18.0
2022-11-12T21:03:13.643Z,18.0
2022-11-12T21:08:13.756Z,13.2
2022-11-12T21:13:13.908Z,13.2
2022-11-12T21:18:14.062Z,13.2
2022-11-12T21:23:14.174Z,13.2
2022-11-12T21:28:14.348Z,16.8
2022-11-12T21:33:14.478Z,19.7
2022-11-12T21:38:14.578Z,26.1
2022-11-12T21:43:14.745Z,26.1
2022-11-12T21:48:14.879Z,15.2
2022-11-12T21:53:17.524Z,12.7
2022-11-12T21:58:15.142Z,14.7
2022-11-12T22:03:15.249Z,14.7
2022-11-12T22:08:15.362Z,15.4
2022-11-12T22:13:26.316Z,16.2
2022-11-12T22:18:20.090Z,16.0
2022-11-12T22:23:16.012Z,14.6
2022-11-12T22:28:15.786Z,14.6
2022-11-12T22:33:15.971Z,14.1
2022-11-12T22:38:16.052Z,17.5
2022-11-12T22:43:18.647Z,11.2
2022-11-12T22:48:18.225Z,11.2
2022-11-12T22:53:16.356Z,15.6
2022-11-12T22:58:16.504Z,15.6
2022-11-12T23:03:16.572Z,21.4
2022-11-12T23:08:16.643Z,21.4
2022-11-12T23:13:16.747Z,17.8
2022-11-12T23:18:16.957Z,11.8
2022-11-12T23:23:21.131Z,15.6
2022-11-12T23:28:19.655Z,15.6
2022-11-12T23:33:17.234Z,11.6
2022-11-12T23:38:17.328Z,15.0
2022-11-12T23:43:17.579Z,12.9
2022-11-12T23:48:17.555Z,12.9
2022-11-12T23:53:19.752Z,12.2
2022-11-12T23:58:17.864Z,12.1
